Time;durP1;ratioP1;P1;durP2;ratioP2;P2;SDS_P1;SDS_P2;PMS_P1;PMS_P2;Temp;Humidity;BMP_temperature;BMP_pressure;BME280_temperature;BME280_humidity;BME280_pressure;Samples;Min_cycle;Max_cycle;Signal;HPM_P1;HPM_P2
2021/12/17 00:03:18;;;;;;;27.35;20.23;;;8.90;71.80;;;;;;4994219;28;20026;-82
2021/12/17 00:05:11;;;;;;;29.58;21.05;;;8.80;71.80;;;;;;4967431;28;20029;-81
2021/12/17 00:07:38;;;;;;;25.77;19.85;;;8.80;72.00;;;;;;4975930;28;20049;-81
2021/12/17 00:10:09;;;;;;;28.90;21.83;;;8.80;72.00;;;;;;4982578;28;20486;-82
2021/12/17 00:12:35;;;;;;;27.48;21.25;;;8.80;71.90;;;;;;4976063;28;20117;-82
2021/12/17 00:15:01;;;;;;;27.98;20.13;;;8.80;71.90;;;;;;4974851;28;20035;-82
2021/12/17 00:17:33;;;;;;;29.58;20.60;;;8.80;71.80;;;;;;4984728;28;20498;-83
2021/12/17 00:50:05;;;;;;;26.83;19.30;;;8.70;72.10;;;;;;4996152;28;20101;-82
2021/12/17 00:52:35;;;;;;;27.20;19.27;;;8.70;72.10;;;;;;4996338;28;20110;-82
2021/12/17 00:55:03;;;;;;;24.13;18.55;;;8.70;72.10;;;;;;4999169;28;20037;-82
2021/12/17 00:57:35;;;;;;;24.50;18.52;;;8.70;72.00;;;;;;4989542;28;20467;-81
2021/12/17 01:00:06;;;;;;;23.77;17.40;;;8.70;72.10;;;;;;4990163;28;20037;-81
2021/12/17 01:02:34;;;;;;;24.88;18.45;;;8.70;72.10;;;;;;4991167;28;20053;-81
2021/12/17 01:05:05;;;;;;;23.00;17.58;;;8.70;72.00;;;;;;4979896;28;20058;-81
2021/12/17 01:07:34;;;;;;;22.75;17.05;;;8.70;72.00;;;;;;4993411;28;20113;-81
2021/12/17 01:10:00;;;;;;;22.48;17.75;;;8.70;71.80;;;;;;4989287;28;20046;-81
2021/12/17 01:12:26;;;;;;;20.55;15.85;;;8.60;71.80;;;;;;4990775;28;20053;-82
2021/12/17 01:14:53;;;;;;;21.52;16.55;;;8.60;71.80;;;;;;4993349;28;20034;-81
2021/12/17 01:17:21;;;;;;;21.73;15.90;;;8.70;71.90;;;;;;4985876;28;20452;-82
2021/12/17 01:25:14;;;;;;;19.95;15.40;;;8.70;71.70;;;;;;4981286;28;20045;-82
2021/12/17 01:35:52;;;;;;;19.65;14.20;;;8.50;71.60;;;;;;4980205;28;20041;-82
2021/12/17 01:43:18;;;;;;;;;;;8.50;71.80;;;;;;4975438;28;20507;-82
2021/12/17 01:45:44;;;;;;;19.42;14.88;;;8.50;71.60;;;;;;4985740;28;19910;-82
2021/12/17 01:48:15;;;;;;;20.25;15.13;;;8.50;71.60;;;;;;4992631;28;20085;-82
2021/12/17 02:01:39;;;;;;;20.80;15.10;;;8.50;71.80;;;;;;4974361;28;20050;-80
2021/12/17 02:04:05;;;;;;;18.02;14.85;;;8.50;71.90;;;;;;4987619;28;20034;-79
2021/12/17 02:06:34;;;;;;;17.58;13.80;;;8.50;71.60;;;;;;4991797;28;20070;-79
2021/12/17 02:09:01;;;;;;;20.58;14.52;;;8.50;71.60;;;;;;4987252;28;20098;-80
2021/12/17 02:12:16;;;;;;;18.70;14.43;;;8.50;71.60;;;;;;4973592;28;20042;-80
2021/12/17 02:19:48;;;;;;;19.30;14.30;;;8.50;71.10;;;;;;4981965;28;20053;-80
2021/12/17 02:32:52;;;;;;;20.45;15.30;;;8.40;71.30;;;;;;4976156;28;20027;-79
2021/12/17 02:35:34;;;;;;;19.15;15.00;;;8.40;71.10;;;;;;4962651;28;20084;-79
2021/12/17 02:38:01;;;;;;;20.98;14.93;;;8.40;71.10;;;;;;4992453;28;20030;-79
2021/12/17 02:45:46;;;;;;;19.33;14.43;;;8.20;71.40;;;;;;4987290;28;20133;-79
2021/12/17 02:48:13;;;;;;;19.90;15.07;;;8.20;71.40;;;;;;4992074;28;20452;-79
2021/12/17 02:50:43;;;;;;;19.02;14.77;;;8.10;71.40;;;;;;4991561;28;20458;-79
2021/12/17 02:53:10;;;;;;;17.88;13.73;;;8.10;71.60;;;;;;4986607;28;20054;-79
2021/12/17 02:55:41;;;;;;;20.92;15.20;;;8.10;71.80;;;;;;4979684;28;20524;-79
2021/12/17 02:58:08;;;;;;;20.35;14.75;;;8.10;71.90;;;;;;4991522;28;20042;-80
2021/12/17 03:00:35;;;;;;;20.75;15.88;;;8.00;71.90;;;;;;4975765;28;20070;-81
2021/12/17 03:03:04;;;;;;;20.65;15.23;;;8.00;71.80;;;;;;4982738;28;20475;-81
2021/12/17 03:05:30;;;;;;;19.85;15.38;;;8.00;71.90;;;;;;4982784;28;20043;-81
2021/12/17 03:07:57;;;;;;;20.55;15.77;;;8.00;72.00;;;;;;4958830;28;20125;-81
2021/12/17 03:10:24;;;;;;;22.17;15.98;;;8.00;72.10;;;;;;4990377;28;20062;-81
2021/12/17 03:12:56;;;;;;;20.38;15.52;;;8.00;72.10;;;;;;4987176;28;20062;-81
2021/12/17 03:15:54;;;;;;;22.38;16.17;;;8.00;72.10;;;;;;4981481;28;20031;-81
2021/12/17 03:23:27;;;;;;;23.45;16.65;;;8.00;72.10;;;;;;4984489;28;20378;-81
2021/12/17 03:25:54;;;;;;;24.13;17.15;;;8.10;72.20;;;;;;4991138;28;20058;-81
2021/12/17 03:28:20;;;;;;;22.77;16.30;;;8.10;72.10;;;;;;4995441;28;20051;-80
2021/12/17 03:30:46;;;;;;;23.20;16.73;;;8.10;72.00;;;;;;4993930;28;20043;-80
2021/12/17 03:33:12;;;;;;;22.92;17.42;;;8.10;72.00;;;;;;4991028;28;20030;-80
2021/12/17 03:35:38;;;;;;;24.83;17.90;;;8.10;72.00;;;;;;4977038;28;20038;-80
2021/12/17 03:38:04;;;;;;;22.52;16.33;;;8.10;72.50;;;;;;4990087;28;20034;-80
2021/12/17 03:40:32;;;;;;;23.33;16.90;;;8.10;72.10;;;;;;4975752;28;20049;-80
2021/12/17 03:43:04;;;;;;;23.98;17.50;;;8.10;72.10;;;;;;4977993;28;20460;-80
2021/12/17 03:45:31;;;;;;;21.70;15.98;;;8.10;72.00;;;;;;4977313;28;20472;-78
2021/12/17 03:47:57;;;;;;;20.63;15.50;;;8.10;71.90;;;;;;4982111;28;20125;-79
2021/12/17 03:50:24;;;;;;;21.35;15.77;;;8.10;71.90;;;;;;4957683;28;20042;-80
2021/12/17 03:52:50;;;;;;;21.00;15.73;;;8.10;71.90;;;;;;4987328;28;20373;-80
2021/12/17 03:55:16;;;;;;;23.60;16.40;;;8.10;72.10;;;;;;4960867;28;20165;-80
2021/12/17 03:57:42;;;;;;;24.55;16.20;;;8.10;72.10;;;;;;4956830;28;20106;-80
2021/12/17 04:00:11;;;;;;;21.15;15.55;;;8.10;72.20;;;;;;4957300;28;20027;-80
2021/12/17 04:02:38;;;;;;;20.85;15.65;;;8.10;72.30;;;;;;4972605;28;20038;-80
2021/12/17 04:05:05;;;;;;;20.60;15.05;;;8.10;72.30;;;;;;4957687;28;20380;-80
2021/12/17 04:07:31;;;;;;;19.45;14.73;;;8.10;72.30;;;;;;4960507;28;20047;-81
2021/12/17 04:09:56;;;;;;;21.70;16.33;;;8.10;72.30;;;;;;4973319;28;20050;-80
2021/12/17 04:12:33;;;;;;;20.35;14.65;;;8.10;72.40;;;;;;4971273;28;20133;-81
2021/12/17 04:15:00;;;;;;;19.38;14.90;;;8.10;72.50;;;;;;4973678;28;20042;-81
2021/12/17 04:17:26;;;;;;;21.15;15.93;;;8.10;72.50;;;;;;4972166;28;20131;-80
2021/12/17 04:19:52;;;;;;;22.98;16.08;;;8.10;72.60;;;;;;4963684;28;20114;-80
2021/12/17 04:22:18;;;;;;;19.73;15.63;;;8.10;72.70;;;;;;4962376;28;20423;-80
2021/12/17 04:24:44;;;;;;;18.70;14.85;;;8.10;72.80;;;;;;4957906;28;20039;-80
2021/12/17 04:27:10;;;;;;;21.73;15.80;;;8.10;72.90;;;;;;4961494;28;20101;-80
2021/12/17 04:29:41;;;;;;;21.85;16.40;;;8.10;73.10;;;;;;4972690;28;20049;-80
2021/12/17 04:32:07;;;;;;;24.80;15.40;;;8.10;73.10;;;;;;4964653;28;20039;-80
2021/12/17 04:34:33;;;;;;;22.85;16.55;;;8.10;73.30;;;;;;4959110;28;20062;-79
2021/12/17 04:36:59;;;;;;;17.52;14.70;;;8.10;73.30;;;;;;4961296;28;20035;-80
2021/12/17 04:39:25;;;;;;;19.58;14.70;;;8.10;73.30;;;;;;4974848;28;20027;-80
2021/12/17 04:42:02;;;;;;;19.83;15.57;;;8.10;73.10;;;;;;4964593;28;20114;-79
2021/12/17 04:44:35;;;;;;;17.75;14.23;;;8.10;73.00;;;;;;4971268;28;20038;-80
2021/12/17 04:58:00;;;;;;;22.10;16.27;;;8.10;73.50;;;;;;4965557;28;20102;-79
2021/12/17 05:00:29;;;;;;;19.13;15.15;;;8.00;73.20;;;;;;4974706;28;20038;-79
2021/12/17 05:02:57;;;;;;;22.08;16.20;;;7.90;73.40;;;;;;4958707;28;20031;-79
2021/12/17 05:05:28;;;;;;;19.92;14.52;;;7.90;73.50;;;;;;4956904;28;20082;-80
2021/12/17 05:07:59;;;;;;;19.60;15.10;;;7.80;73.50;;;;;;4965808;28;20070;-80
2021/12/17 05:18:26;;;;;;;19.52;15.00;;;7.60;73.90;;;;;;4963230;28;20109;-80
2021/12/17 05:21:04;;;;;;;21.25;16.38;;;7.60;73.70;;;;;;4972362;28;20042;-81
2021/12/17 05:23:35;;;;;;;27.70;18.83;;;7.60;73.80;;;;;;4965150;28;20039;-81
2021/12/17 05:26:06;;;;;;;24.80;17.88;;;7.50;73.80;;;;;;4956066;28;20547;-82
2021/12/17 05:28:32;;;;;;;25.85;17.58;;;7.50;73.90;;;;;;4959212;28;20068;-81
2021/12/17 05:30:59;;;;;;;22.70;17.30;;;7.40;74.00;;;;;;4959759;28;20039;-81
2021/12/17 05:33:25;;;;;;;25.60;17.88;;;7.40;74.00;;;;;;4974114;28;20042;-81
2021/12/17 05:35:51;;;;;;;23.95;17.10;;;7.40;74.00;;;;;;4973193;28;20046;-81
2021/12/17 05:38:20;;;;;;;25.35;17.77;;;7.40;74.00;;;;;;4964307;28;20039;-80
2021/12/17 05:40:46;;;;;;;24.05;18.27;;;7.40;74.10;;;;;;4955064;28;20067;-80
2021/12/17 05:43:14;;;;;;;25.83;17.70;;;7.40;74.20;;;;;;4955772;28;20046;-80
2021/12/17 05:48:21;;;;;;;28.08;18.90;;;7.50;74.20;;;;;;4962166;28;20043;-80
2021/12/17 05:50:48;;;;;;;24.55;18.15;;;7.50;74.10;;;;;;4952475;29;20047;-80
2021/12/17 05:53:15;;;;;;;24.20;18.50;;;7.50;74.00;;;;;;4937224;29;20102;-80
2021/12/17 05:55:41;;;;;;;25.50;18.70;;;7.60;73.90;;;;;;4943760;29;20043;-79
2021/12/17 05:58:08;;;;;;;25.52;19.25;;;7.60;73.70;;;;;;4940648;29;20099;-84
2021/12/17 06:00:36;;;;;;;24.85;18.27;;;7.60;73.70;;;;;;4951435;29;20039;-82
2021/12/17 06:03:04;;;;;;;25.83;18.80;;;7.60;73.80;;;;;;4949831;29;20050;-89
2021/12/17 06:05:29;;;;;;;23.58;17.40;;;7.60;73.70;;;;;;4948418;28;20034;-90
2021/12/17 06:07:55;;;;;;;24.17;17.83;;;7.60;73.60;;;;;;4936430;29;20027;-87
2021/12/17 06:10:22;;;;;;;22.58;17.75;;;7.60;73.70;;;;;;4936992;29;20140;-87
2021/12/17 06:12:48;;;;;;;25.63;18.67;;;7.60;73.70;;;;;;4940745;29;20027;-86
2021/12/17 06:15:16;;;;;;;23.73;17.42;;;7.60;74.10;;;;;;4950637;29;20040;-86
2021/12/17 06:17:42;;;;;;;23.20;16.27;;;7.60;74.00;;;;;;4930863;29;20511;-87
2021/12/17 06:20:11;;;;;;;20.73;16.02;;;7.60;74.00;;;;;;4946591;29;20379;-87
2021/12/17 06:22:36;;;;;;;22.33;16.38;;;7.60;74.10;;;;;;4954177;28;20490;-85
2021/12/17 06:25:04;;;;;;;27.02;16.63;;;7.50;81.60;;;;;;4947750;29;20043;-87
2021/12/17 06:27:30;;;;;;;20.67;15.35;;;7.50;76.20;;;;;;4939479;29;20031;-92
2021/12/17 06:29:57;;;;;;;25.15;17.48;;;7.40;75.40;;;;;;4937639;29;20042;-94
2021/12/17 06:32:23;;;;;;;23.05;17.88;;;7.40;75.30;;;;;;4937806;29;20036;-93
2021/12/17 06:34:49;;;;;;;24.60;18.13;;;7.40;75.30;;;;;;4946496;28;20078;-93
2021/12/17 06:37:16;;;;;;;25.77;18.95;;;7.40;75.20;;;;;;4936983;29;20031;-91
2021/12/17 06:39:42;;;;;;;23.35;16.92;;;7.40;75.10;;;;;;4943895;29;20039;-89
2021/12/17 06:42:08;;;;;;;23.08;17.63;;;7.40;75.00;;;;;;4940066;28;20031;-90
2021/12/17 06:44:34;;;;;;;24.58;18.33;;;7.40;75.10;;;;;;4958444;28;20074;-94
2021/12/17 06:47:06;;;;;;;27.88;17.85;;;7.40;75.20;;;;;;4935368;29;20397;-93
2021/12/17 07:10:47;;;;;;;26.10;18.42;;;7.60;74.70;;;;;;4988204;28;20505;-85
2021/12/17 07:34:15;;;;;;;22.02;16.65;;;7.30;75.60;;;;;;4981810;28;20042;-83
2021/12/17 07:39:10;;;;;;;23.15;17.13;;;7.20;75.90;;;;;;4980385;28;20038;-86
2021/12/17 07:41:36;;;;;;;24.38;18.00;;;7.20;75.90;;;;;;4987199;28;20046;-86
2021/12/17 07:44:02;;;;;;;23.98;18.15;;;7.30;76.00;;;;;;4996024;28;20049;-86
2021/12/17 07:46:28;;;;;;;22.75;17.08;;;7.30;76.00;;;;;;4995661;28;20391;-82
2021/12/17 07:48:55;;;;;;;25.20;18.23;;;7.30;76.00;;;;;;4996115;28;20050;-83
2021/12/17 07:51:23;;;;;;;22.80;17.35;;;7.30;76.10;;;;;;4963103;28;20637;-83
2021/12/17 07:53:49;;;;;;;23.40;17.45;;;7.30;76.00;;;;;;4994715;28;20048;-83
2021/12/17 07:56:18;;;;;;;24.88;17.45;;;7.40;76.10;;;;;;4996323;28;20093;-83
2021/12/17 07:58:45;;;;;;;22.55;16.88;;;7.40;76.10;;;;;;4996258;28;20046;-83
2021/12/17 08:01:12;;;;;;;22.67;17.70;;;7.40;75.90;;;;;;4996194;28;20031;-84
2021/12/17 08:03:39;;;;;;;22.55;17.70;;;7.40;75.80;;;;;;4995971;28;20050;-83
2021/12/17 08:06:05;;;;;;;22.45;16.52;;;7.50;75.70;;;;;;4996206;28;20045;-83
2021/12/17 08:08:32;;;;;;;27.13;20.83;;;7.50;75.40;;;;;;4977624;28;20050;-83
2021/12/17 08:10:58;;;;;;;25.55;18.38;;;7.40;74.50;;;;;;4976440;28;20751;-83
2021/12/17 08:13:28;;;;;;;22.15;17.90;;;7.40;74.70;;;;;;4959040;28;20475;-83
2021/12/17 08:16:16;;;;;;;30.42;20.70;;;7.10;75.40;;;;;;4959371;28;20046;-84
2021/12/17 08:24:37;;;;;;;20.23;15.55;;;7.10;75.90;;;;;;4976945;28;20037;-83
2021/12/17 08:31:54;;;;;;;24.88;18.15;;;7.30;75.40;;;;;;4997452;28;20046;-83
2021/12/17 08:34:21;;;;;;;23.17;18.13;;;7.50;75.10;;;;;;4978257;28;20047;-83
2021/12/17 08:36:47;;;;;;;26.05;19.05;;;7.60;74.80;;;;;;4978083;28;20062;-83
2021/12/17 08:39:13;;;;;;;23.30;18.48;;;7.70;74.50;;;;;;4996121;28;20062;-84
2021/12/17 08:41:40;;;;;;;23.13;17.95;;;7.70;74.20;;;;;;4978185;28;20557;-82
2021/12/17 08:44:07;;;;;;;23.83;17.98;;;7.80;74.10;;;;;;4977368;28;20039;-83
2021/12/17 08:46:33;;;;;;;24.40;17.95;;;7.90;73.90;;;;;;4991538;28;20042;-83
2021/12/17 08:48:59;;;;;;;22.23;18.27;;;7.90;73.50;;;;;;4995631;28;20498;-82
2021/12/17 08:51:25;;;;;;;28.30;20.63;;;8.00;73.60;;;;;;4995076;28;20125;-83
2021/12/17 08:53:52;;;;;;;22.42;18.70;;;8.10;73.10;;;;;;4995635;28;20042;-83
2021/12/17 08:56:22;;;;;;;33.08;26.15;;;8.10;73.00;;;;;;4984703;28;20067;-84
2021/12/17 08:58:51;;;;;;;23.38;18.88;;;8.10;72.20;;;;;;4958942;28;20045;-84
2021/12/17 09:01:18;;;;;;;25.40;18.83;;;7.90;73.10;;;;;;4958807;28;20502;-84
2021/12/17 09:03:45;;;;;;;23.52;18.63;;;7.80;73.20;;;;;;4976587;28;20034;-84
2021/12/17 09:06:10;;;;;;;26.30;20.52;;;7.90;73.40;;;;;;4977034;28;20046;-84
2021/12/17 09:08:36;;;;;;;25.67;20.08;;;7.90;73.50;;;;;;4976611;28;20042;-84
2021/12/17 09:11:02;;;;;;;24.67;19.50;;;8.00;73.70;;;;;;4970034;28;20181;-82
2021/12/17 09:13:28;;;;;;;24.00;18.27;;;8.00;73.50;;;;;;4995649;28;20375;-82
2021/12/17 09:15:56;;;;;;;26.13;18.98;;;8.00;73.50;;;;;;4984133;28;20046;-83
2021/12/17 09:18:22;;;;;;;27.65;21.15;;;8.10;73.70;;;;;;4975734;28;20038;-83
2021/12/17 09:20:48;;;;;;;28.25;21.17;;;8.20;73.60;;;;;;4976737;28;20102;-83
2021/12/17 09:23:14;;;;;;;27.63;21.92;;;8.30;73.30;;;;;;4975821;28;20027;-83
2021/12/17 09:25:40;;;;;;;32.30;22.42;;;8.30;72.80;;;;;;4980863;28;20126;-83
2021/12/17 09:28:06;;;;;;;25.67;21.58;;;8.40;72.70;;;;;;4995726;28;20038;-83
2021/12/17 09:30:32;;;;;;;25.05;20.17;;;8.20;72.90;;;;;;4978177;28;20085;-83
2021/12/17 09:32:58;;;;;;;21.15;18.00;;;8.20;73.50;;;;;;4977861;28;20125;-83
2021/12/17 09:35:24;;;;;;;21.80;17.73;;;8.20;73.10;;;;;;4987589;28;20127;-83
2021/12/17 09:37:51;;;;;;;21.27;18.35;;;8.30;72.70;;;;;;4978779;28;20082;-83
2021/12/17 09:40:17;;;;;;;25.50;19.25;;;8.30;73.20;;;;;;4993249;28;20081;-83
2021/12/17 09:42:45;;;;;;;23.33;18.80;;;8.40;72.90;;;;;;4993265;28;20043;-84
2021/12/17 09:45:13;;;;;;;23.75;18.10;;;8.60;72.70;;;;;;4986638;28;20463;-83
2021/12/17 09:47:40;;;;;;;21.95;17.83;;;8.70;71.90;;;;;;4989935;28;20081;-83
2021/12/17 09:50:09;;;;;;;23.08;17.10;;;8.70;71.70;;;;;;4987181;28;20050;-82
2021/12/17 09:52:35;;;;;;;22.85;16.85;;;8.80;72.20;;;;;;4976189;28;20031;-83
2021/12/17 09:55:02;;;;;;;22.65;17.92;;;8.80;72.00;;;;;;5004257;28;20038;-83
2021/12/17 09:57:31;;;;;;;22.17;18.48;;;9.00;72.10;;;;;;4998691;28;20084;-85
2021/12/17 09:59:57;;;;;;;19.77;17.30;;;9.10;71.90;;;;;;4992831;28;20053;-84
2021/12/17 10:02:22;;;;;;;22.63;17.92;;;9.30;71.90;;;;;;4992727;28;20395;-84
2021/12/17 10:04:48;;;;;;;24.45;20.00;;;9.40;71.30;;;;;;4986593;28;20525;-84
2021/12/17 10:07:43;;;;;;;20.00;16.45;;;9.30;69.70;;;;;;4976156;28;20038;-84
2021/12/17 10:10:09;;;;;;;23.13;18.05;;;9.30;71.10;;;;;;4986010;28;20050;-83
2021/12/17 10:12:39;;;;;;;21.00;16.30;;;9.30;70.60;;;;;;4988737;28;20042;-84
2021/12/17 10:15:07;;;;;;;17.23;14.95;;;9.40;70.90;;;;;;4984750;28;20040;-86
2021/12/17 10:17:51;;;;;;;22.30;16.30;;;9.40;70.60;;;;;;4993341;28;20031;-84
2021/12/17 10:20:17;;;;;;;21.60;16.67;;;9.50;70.70;;;;;;4988636;28;20059;-85
2021/12/17 10:22:54;;;;;;;23.23;18.45;;;9.70;70.80;;;;;;4968582;28;20030;-84
2021/12/17 10:25:21;;;;;;;23.33;17.40;;;9.80;69.10;;;;;;4969999;28;20107;-85
2021/12/17 10:27:48;;;;;;;19.10;15.05;;;9.90;69.00;;;;;;4991942;28;20061;-85
2021/12/17 10:30:17;;;;;;;24.27;18.77;;;10.10;69.50;;;;;;4987357;28;20062;-84
2021/12/17 10:32:46;;;;;;;26.27;18.77;;;10.30;68.60;;;;;;4993380;28;20054;-84
2021/12/17 10:35:15;;;;;;;24.92;19.38;;;10.50;69.30;;;;;;4994108;28;20038;-84
2021/12/17 10:37:49;;;;;;;25.30;19.63;;;10.70;68.40;;;;;;4993953;28;20041;-84
2021/12/17 10:40:26;;;;;;;24.63;20.90;;;10.80;68.00;;;;;;4993287;28;20026;-84
2021/12/17 10:43:06;;;;;;;26.75;20.20;;;10.90;67.90;;;;;;4974386;28;20527;-84
2021/12/17 10:45:39;;;;;;;22.00;19.35;;;11.10;67.80;;;;;;4984565;28;20093;-84
2021/12/17 10:48:33;;;;;;;22.52;18.83;;;11.30;67.80;;;;;;4972223;28;20436;-83
2021/12/17 10:51:08;;;;;;;26.40;19.02;;;11.40;67.20;;;;;;4973542;28;20103;-84
2021/12/17 10:53:34;;;;;;;22.23;19.00;;;11.40;66.10;;;;;;4970529;28;20097;-83
2021/12/17 10:56:00;;;;;;;25.67;20.58;;;11.50;65.30;;;;;;4964569;28;20038;-83
2021/12/17 10:58:27;;;;;;;22.58;17.70;;;11.50;65.70;;;;;;4965374;28;20098;-83
2021/12/17 11:01:05;;;;;;;22.45;17.70;;;11.50;65.50;;;;;;4956894;28;20047;-86
2021/12/17 11:03:40;;;;;;;22.60;17.73;;;11.60;66.70;;;;;;4967383;28;20039;-85
2021/12/17 11:06:06;;;;;;;23.20;18.98;;;11.90;66.60;;;;;;4973365;28;20517;-84
2021/12/17 11:08:34;;;;;;;23.25;18.92;;;12.20;66.00;;;;;;4972004;28;20027;-85
2021/12/17 11:11:12;;;;;;;19.48;14.93;;;12.40;64.00;;;;;;4964965;28;20507;-85
2021/12/17 11:13:53;;;;;;;19.77;14.93;;;12.20;60.60;;;;;;4961532;28;20047;-85
2021/12/17 11:16:20;;;;;;;19.92;14.50;;;12.00;61.60;;;;;;4973351;28;20644;-85
2021/12/17 11:18:48;;;;;;;18.08;15.20;;;12.10;64.30;;;;;;4972376;28;20375;-85
2021/12/17 11:21:14;;;;;;;20.88;17.20;;;12.30;64.10;;;;;;4969078;28;20086;-85
2021/12/17 11:23:41;;;;;;;21.50;18.30;;;12.40;62.40;;;;;;4972528;28;20368;-85
2021/12/17 11:26:07;;;;;;;23.08;18.33;;;12.40;64.00;;;;;;4973528;28;20096;-85
2021/12/17 11:28:33;;;;;;;25.80;21.10;;;12.70;64.00;;;;;;4970275;28;20039;-84
2021/12/17 11:30:59;;;;;;;24.52;21.45;;;13.10;64.00;;;;;;4959455;28;20034;-85
2021/12/17 11:33:25;;;;;;;23.67;19.80;;;13.50;63.20;;;;;;4962806;28;20050;-85
2021/12/17 11:35:52;;;;;;;27.35;21.75;;;13.80;62.50;;;;;;4955424;28;20065;-84
2021/12/17 11:38:30;;;;;;;24.23;21.00;;;14.30;60.50;;;;;;4968962;28;20114;-85
2021/12/17 11:41:19;;;;;;;24.05;18.75;;;14.60;56.60;;;;;;4970973;28;20045;-85
2021/12/17 11:43:57;;;;;;;20.87;18.73;;;15.00;54.50;;;;;;4978041;28;20047;-85
2021/12/17 11:46:26;;;;;;;26.90;22.77;;;15.50;53.10;;;;;;4970679;28;21306;-85
2021/12/17 11:49:14;;;;;;;21.92;19.20;;;16.00;51.00;;;;;;4968301;28;20051;-83
2021/12/17 11:51:40;;;;;;;23.58;21.08;;;16.50;52.80;;;;;;4972623;28;20043;-82
2021/12/17 11:54:08;;;;;;;25.83;21.58;;;17.00;50.40;;;;;;4977678;28;20129;-83
2021/12/17 11:56:50;;;;;;;29.05;25.27;;;17.10;49.50;;;;;;4962981;28;20035;-83
2021/12/17 11:59:24;;;;;;;25.70;22.92;;;17.80;47.40;;;;;;4976448;28;20031;-83
2021/12/17 12:02:03;;;;;;;22.73;20.30;;;17.20;47.40;;;;;;4971215;28;20067;-83
2021/12/17 12:04:34;;;;;;;30.08;26.92;;;16.90;49.40;;;;;;4989247;28;20042;-83
2021/12/17 12:07:05;;;;;;;25.70;22.58;;;17.40;47.20;;;;;;4960199;28;20098;-83
2021/12/17 12:09:59;;;;;;;24.77;22.08;;;17.20;48.60;;;;;;4963187;28;20026;-83
2021/12/17 12:12:36;;;;;;;25.00;21.25;;;17.00;47.30;;;;;;4978255;28;20496;-84
2021/12/17 12:15:17;;;;;;;27.48;24.58;;;17.10;48.00;;;;;;4968697;28;20042;-84
2021/12/17 12:17:58;;;;;;;23.30;19.83;;;16.60;48.10;;;;;;4974857;28;20400;-84
2021/12/17 12:20:45;;;;;;;26.90;22.80;;;16.80;48.30;;;;;;4986198;28;20065;-84
2021/12/17 12:23:17;;;;;;;24.65;19.60;;;16.70;47.50;;;;;;4980938;28;20202;-84
2021/12/17 12:25:44;;;;;;;20.75;18.55;;;16.90;48.60;;;;;;4972947;28;20039;-84
2021/12/17 12:28:13;;;;;;;23.60;20.63;;;16.70;49.10;;;;;;4976276;28;20113;-83
2021/12/17 12:30:42;;;;;;;23.33;20.93;;;16.80;49.00;;;;;;4967143;28;20074;-83
2021/12/17 12:33:10;;;;;;;23.13;18.85;;;17.10;48.70;;;;;;4988178;28;20046;-83
2021/12/17 12:35:37;;;;;;;23.63;21.13;;;16.60;49.10;;;;;;4984129;28;20057;-83
2021/12/17 12:38:18;;;;;;;28.65;25.25;;;16.50;49.20;;;;;;4975709;28;20046;-83
2021/12/17 12:40:51;;;;;;;24.40;21.33;;;15.70;49.70;;;;;;4972783;28;20042;-83
2021/12/17 12:43:29;;;;;;;26.67;21.98;;;15.60;51.50;;;;;;4981295;28;20431;-83
2021/12/17 12:45:54;;;;;;;26.73;23.02;;;15.60;52.20;;;;;;4974635;28;20061;-84
2021/12/17 12:48:36;;;;;;;22.63;20.10;;;16.00;52.00;;;;;;4975964;28;20086;-83
2021/12/17 12:51:22;;;;;;;25.60;22.17;;;16.10;50.60;;;;;;4963958;28;20031;-83
2021/12/17 12:54:05;;;;;;;25.55;22.63;;;15.40;50.40;;;;;;4964200;28;20039;-83
2021/12/17 12:56:32;;;;;;;23.23;20.52;;;15.30;51.80;;;;;;4973551;28;20030;-83
2021/12/17 12:58:57;;;;;;;20.45;18.35;;;15.40;52.60;;;;;;4976557;28;20098;-83
2021/12/17 13:01:24;;;;;;;19.50;17.35;;;15.80;51.30;;;;;;4969677;28;20039;-83
2021/12/17 13:03:50;;;;;;;18.48;16.48;;;15.90;50.40;;;;;;4958675;28;20134;-83
2021/12/17 13:06:18;;;;;;;19.73;17.63;;;16.30;49.50;;;;;;4967060;28;20070;-83
2021/12/17 13:08:55;;;;;;;18.98;16.98;;;16.60;46.60;;;;;;4959536;28;20047;-82
2021/12/17 13:11:21;;;;;;;18.17;16.23;;;16.80;46.90;;;;;;4976040;28;20027;-83
2021/12/17 13:13:57;;;;;;;18.52;16.60;;;16.70;46.30;;;;;;4975595;28;20051;-83
2021/12/17 13:22:03;;;;;;;20.15;16.40;;;16.30;46.80;;;;;;4959986;28;20053;-83
2021/12/17 13:24:31;;;;;;;20.27;18.17;;;15.80;47.90;;;;;;4954411;28;20051;-83
2021/12/17 13:27:09;;;;;;;20.73;18.60;;;15.50;48.70;;;;;;4958811;28;20034;-83
2021/12/17 13:29:38;;;;;;;20.02;17.90;;;15.30;49.50;;;;;;4964443;28;20071;-83
2021/12/17 13:32:09;;;;;;;22.60;20.20;;;15.20;49.90;;;;;;4966329;28;20055;-83
2021/12/17 13:34:43;;;;;;;21.95;19.65;;;15.00;50.40;;;;;;4969371;28;20043;-82
2021/12/17 13:37:21;;;;;;;25.70;20.80;;;14.80;50.70;;;;;;4967921;28;20041;-83
2021/12/17 13:39:49;;;;;;;24.52;19.92;;;14.80;51.00;;;;;;4952352;28;20067;-83
2021/12/17 13:42:16;;;;;;;22.20;19.80;;;14.50;51.80;;;;;;4954512;28;20519;-83
2021/12/17 13:45:07;;;;;;;23.05;20.65;;;14.30;52.70;;;;;;4960518;28;20066;-83
2021/12/17 13:47:50;;;;;;;23.92;20.65;;;14.10;53.30;;;;;;4960705;28;20092;-77
2021/12/17 13:50:34;;;;;;;24.73;20.80;;;13.90;54.10;;;;;;4955086;28;20079;-77
2021/12/17 13:53:04;;;;;;;24.70;22.02;;;13.80;54.60;;;;;;4954551;28;20090;-77
2021/12/17 13:55:37;;;;;;;26.73;22.63;;;13.70;55.20;;;;;;4955260;29;20032;-78
2021/12/17 13:58:08;;;;;;;26.20;22.23;;;13.50;55.70;;;;;;4955693;29;20538;-77
2021/12/17 14:00:39;;;;;;;27.85;23.70;;;13.50;56.50;;;;;;4958820;28;20039;-77
2021/12/17 14:03:05;;;;;;;29.42;26.25;;;13.40;56.90;;;;;;4974610;28;20042;-78
2021/12/17 14:05:49;;;;;;;29.88;26.63;;;13.40;57.30;;;;;;4974824;28;20026;-79
2021/12/17 14:08:19;;;;;;;33.30;29.75;;;13.30;58.10;;;;;;4974528;28;21069;-80
2021/12/17 14:10:45;;;;;;;38.35;31.02;;;13.30;58.50;;;;;;4968217;28;20047;-80
2021/12/17 14:13:20;;;;;;;33.25;29.63;;;13.30;59.60;;;;;;4955249;28;20566;-80
2021/12/17 14:15:47;;;;;;;34.97;27.73;;;13.20;59.70;;;;;;4955429;28;20090;-80
2021/12/17 14:18:24;;;;;;;32.95;29.25;;;12.80;60.70;;;;;;4955571;29;20495;-79
2021/12/17 14:20:57;;;;;;;33.75;29.25;;;12.70;61.20;;;;;;4955386;28;20039;-79
2021/12/17 14:23:27;;;;;;;36.80;29.92;;;12.40;61.40;;;;;;4955291;28;20114;-80
2021/12/17 14:25:54;;;;;;;;;;;12.40;61.90;;;;;;4955785;29;20110;-79
2021/12/17 14:28:28;;;;;;;34.90;27.88;;;12.40;62.10;;;;;;4955173;29;20363;-79
2021/12/17 14:30:58;;;;;;;33.75;28.75;;;12.40;62.30;;;;;;4955309;28;20098;-79
2021/12/17 14:33:29;;;;;;;33.20;28.45;;;12.40;62.30;;;;;;4955234;29;20035;-79
2021/12/17 14:35:58;;;;;;;33.53;28.33;;;12.40;62.60;;;;;;4954986;29;20031;-79
2021/12/17 14:38:51;;;;;;;35.03;29.38;;;12.30;62.80;;;;;;4953558;29;20043;-79
2021/12/17 14:41:23;;;;;;;37.38;27.77;;;12.10;63.20;;;;;;4955543;28;20039;-79
2021/12/17 14:43:56;;;;;;;35.35;29.60;;;12.00;63.60;;;;;;4955048;29;20482;-79
2021/12/17 15:05:21;;;;;;;26.98;23.25;;;11.60;64.10;;;;;;4974259;28;20046;-78
2021/12/17 15:07:47;;;;;;;;;;;11.60;64.10;;;;;;4974754;28;20125;-78
2021/12/17 15:10:14;;;;;;;24.55;21.67;;;11.60;64.30;;;;;;4973659;28;19945;-80
2021/12/17 15:12:41;;;;;;;25.95;22.52;;;11.60;64.50;;;;;;4954968;28;20051;-81
2021/12/17 15:15:19;;;;;;;37.50;29.75;;;11.60;64.70;;;;;;4954996;29;20039;-80
2021/12/17 15:17:47;;;;;;;41.08;32.83;;;11.60;65.10;;;;;;4957261;28;20027;-80
2021/12/17 15:20:15;;;;;;;39.05;33.33;;;11.60;65.70;;;;;;4958706;28;20110;-80
2021/12/17 15:22:42;;;;;;;37.45;33.35;;;11.50;66.60;;;;;;4973364;28;20444;-81
2021/12/17 15:25:09;;;;;;;40.67;33.63;;;11.40;66.40;;;;;;4958292;29;20384;-79
2021/12/17 15:27:36;;;;;;;40.85;33.83;;;11.30;66.80;;;;;;4958171;28;20126;-80
2021/12/17 15:30:07;;;;;;;41.92;34.65;;;11.30;67.00;;;;;;4958332;28;20039;-78
2021/12/17 15:32:32;;;;;;;45.95;35.75;;;11.30;67.20;;;;;;4961894;28;20038;-79
2021/12/17 15:34:58;;;;;;;40.60;35.38;;;11.30;67.30;;;;;;4977910;28;20034;-77
2021/12/17 15:37:24;;;;;;;42.28;37.53;;;11.20;67.40;;;;;;4977416;28;20093;-77
2021/12/17 15:39:50;;;;;;;41.40;34.47;;;11.20;67.70;;;;;;4977261;28;20106;-78
2021/12/17 15:42:16;;;;;;;39.75;35.10;;;11.20;67.80;;;;;;4975150;28;20045;-77
2021/12/17 15:44:42;;;;;;;40.63;35.28;;;11.00;67.80;;;;;;4968478;28;20035;-78
2021/12/17 15:47:08;;;;;;;45.70;36.85;;;10.90;68.40;;;;;;4964810;28;20051;-77
2021/12/17 15:49:35;;;;;;;41.70;35.92;;;10.90;68.80;;;;;;4957088;29;20130;-78
2021/12/17 15:52:04;;;;;;;41.67;35.92;;;10.80;69.10;;;;;;4956797;28;20066;-78
2021/12/17 15:54:30;;;;;;;43.80;36.92;;;10.70;69.40;;;;;;4957909;29;20031;-78